Time;durP1;ratioP1;P1;durP2;ratioP2;P2;SDS_P1;SDS_P2;PMS_P1;PMS_P2;Temp;Humidity;BMP_temperature;BMP_pressure;BME280_temperature;BME280_humidity;BME280_pressure;Samples;Min_cycle;Max_cycle;Signal;HPM_P1;HPM_P2
2022/04/30 00:01:03;;;;;;;31.63;29.63;;;13.10;75.40;;;;;;5091677;28;20446;-74
2022/04/30 00:03:30;;;;;;;31.83;29.83;;;13.10;75.10;;;;;;5092004;28;21033;-74
2022/04/30 00:05:58;;;;;;;30.90;28.70;;;13.10;75.20;;;;;;5092253;28;20461;-74
2022/04/30 00:08:25;;;;;;;31.13;29.00;;;13.10;75.20;;;;;;5092027;28;20449;-74
2022/04/30 00:10:54;;;;;;;32.23;30.07;;;13.10;75.20;;;;;;5091691;28;20456;-74
2022/04/30 00:13:21;;;;;;;31.57;29.70;;;13.10;75.10;;;;;;5091834;28;20489;-74
2022/04/30 00:15:48;;;;;;;30.47;28.70;;;13.10;75.00;;;;;;5091952;28;20454;-74
2022/04/30 00:18:15;;;;;;;30.93;28.83;;;13.20;74.70;;;;;;5091710;28;20480;-74
2022/04/30 00:20:46;;;;;;;30.53;28.73;;;13.20;74.70;;;;;;5091534;28;20537;-74
2022/04/30 00:23:20;;;;;;;32.47;30.37;;;13.10;74.90;;;;;;5091853;28;21070;-74
2022/04/30 00:25:53;;;;;;;30.47;28.57;;;13.00;75.10;;;;;;5091411;28;20542;-74
2022/04/30 00:28:22;;;;;;;31.70;29.80;;;12.80;75.60;;;;;;5095554;28;20934;-74
2022/04/30 00:30:49;;;;;;;31.60;29.40;;;12.90;75.40;;;;;;5095456;28;20492;-74
2022/04/30 00:33:17;;;;;;;32.60;30.60;;;12.90;75.20;;;;;;5095859;28;20977;-74
2022/04/30 00:35:44;;;;;;;31.70;29.80;;;12.90;73.90;;;;;;5095952;28;20580;-74
2022/04/30 00:38:11;;;;;;;31.93;30.10;;;13.00;73.70;;;;;;5095919;28;20473;-74
2022/04/30 00:40:38;;;;;;;32.00;30.10;;;13.00;72.00;;;;;;5095214;28;20830;-74
2022/04/30 00:43:07;;;;;;;32.20;30.20;;;13.10;71.70;;;;;;5095797;28;20976;-74
2022/04/30 00:45:34;;;;;;;33.33;31.27;;;13.20;71.70;;;;;;5095667;28;20933;-74
2022/04/30 00:48:00;;;;;;;31.00;29.10;;;13.20;71.50;;;;;;5095853;28;20449;-74
2022/04/30 00:50:29;;;;;;;32.20;30.00;;;13.30;70.60;;;;;;5095061;28;20536;-74
2022/04/30 00:52:59;;;;;;;33.63;31.53;;;13.40;70.10;;;;;;5095775;28;20934;-74
2022/04/30 00:55:30;;;;;;;32.00;30.10;;;13.50;69.60;;;;;;5095390;28;20825;-75
2022/04/30 00:58:02;;;;;;;31.23;29.43;;;13.50;69.50;;;;;;5095539;28;20483;-74
2022/04/30 01:00:30;;;;;;;30.60;28.60;;;13.50;69.80;;;;;;5095219;28;20465;-74
2022/04/30 01:02:57;;;;;;;32.80;30.73;;;13.50;70.60;;;;;;5095610;28;20485;-74
2022/04/30 01:05:24;;;;;;;34.17;31.70;;;13.50;70.50;;;;;;5095341;28;20457;-74
2022/04/30 01:07:52;;;;;;;35.10;32.70;;;13.60;70.40;;;;;;5095114;28;20449;-74
2022/04/30 01:10:20;;;;;;;35.00;32.70;;;13.60;70.70;;;;;;5094837;28;20934;-75
2022/04/30 01:12:48;;;;;;;36.37;33.77;;;13.60;71.10;;;;;;5095259;28;20492;-74
2022/04/30 01:15:15;;;;;;;36.00;33.30;;;13.60;71.80;;;;;;5095371;28;20564;-74
2022/04/30 01:17:44;;;;;;;36.03;33.30;;;13.60;72.10;;;;;;5095193;28;20508;-75
2022/04/30 01:20:12;;;;;;;36.30;33.70;;;13.60;72.70;;;;;;5094615;28;20461;-74
2022/04/30 01:23:09;;;;;;;37.30;34.13;;;13.50;73.20;;;;;;5095384;28;20456;-75
2022/04/30 01:25:42;;;;;;;38.80;35.60;;;13.50;73.30;;;;;;5058810;28;20457;-75
2022/04/30 01:28:11;;;;;;;41.30;38.10;;;13.50;73.70;;;;;;5095212;28;20453;-75
2022/04/30 01:30:39;;;;;;;41.40;38.27;;;13.50;75.20;;;;;;5094363;28;20450;-75
2022/04/30 01:38:34;;;;;;;42.40;39.00;;;13.30;77.00;;;;;;5094378;28;20523;-74
2022/04/30 01:41:03;;;;;;;43.70;40.00;;;13.20;78.30;;;;;;5094230;28;20910;-75
2022/04/30 01:43:33;;;;;;;44.70;40.80;;;13.10;78.50;;;;;;5094640;28;20527;-75
2022/04/30 01:46:00;;;;;;;44.67;40.87;;;13.20;78.20;;;;;;5094709;28;20538;-74
2022/04/30 01:48:27;;;;;;;44.13;40.57;;;13.10;78.80;;;;;;5094531;28;20450;-74
2022/04/30 01:50:56;;;;;;;41.93;38.37;;;13.10;79.30;;;;;;5094037;28;20554;-74
2022/04/30 01:53:23;;;;;;;44.77;40.53;;;13.00;79.60;;;;;;5094320;28;20522;-74
2022/04/30 01:55:51;;;;;;;43.47;39.97;;;12.90;80.20;;;;;;5094355;28;20934;-74
2022/04/30 01:58:20;;;;;;;44.00;40.10;;;13.00;79.80;;;;;;5094287;28;20569;-74
2022/04/30 02:00:46;;;;;;;44.53;40.67;;;13.00;80.00;;;;;;5093927;28;20939;-74
2022/04/30 02:03:14;;;;;;;45.77;41.07;;;12.90;80.50;;;;;;5094227;28;20534;-74
2022/04/30 02:05:42;;;;;;;42.47;38.77;;;12.80;80.70;;;;;;5094272;28;20553;-74
2022/04/30 02:08:11;;;;;;;43.03;39.33;;;12.90;80.70;;;;;;5094076;28;20486;-74
2022/04/30 02:10:40;;;;;;;43.27;39.60;;;12.90;80.70;;;;;;5093901;28;20460;-74
2022/04/30 02:13:09;;;;;;;44.73;40.47;;;12.90;80.60;;;;;;5093936;28;20868;-74
2022/04/30 02:15:40;;;;;;;43.27;39.57;;;12.90;80.60;;;;;;5094083;28;20457;-74
2022/04/30 02:18:12;;;;;;;41.97;38.23;;;12.90;80.60;;;;;;5093776;28;21049;-74
2022/04/30 02:20:42;;;;;;;43.03;39.13;;;13.00;80.30;;;;;;5093498;28;20976;-74
2022/04/30 02:23:11;;;;;;;44.47;40.37;;;13.00;80.50;;;;;;5093946;28;20561;-74
2022/04/30 02:25:38;;;;;;;42.47;38.40;;;13.00;80.60;;;;;;5094199;28;20445;-74
2022/04/30 02:28:08;;;;;;;43.97;40.13;;;12.80;81.00;;;;;;5093495;28;20462;-74
2022/04/30 02:30:38;;;;;;;42.87;39.27;;;12.80;81.10;;;;;;5093322;28;20600;-74
2022/04/30 02:33:06;;;;;;;43.27;39.70;;;12.80;81.00;;;;;;5093495;28;20467;-74
2022/04/30 02:35:35;;;;;;;41.87;38.50;;;12.80;81.10;;;;;;5093683;28;20518;-74
2022/04/30 02:38:06;;;;;;;43.07;39.50;;;12.80;81.10;;;;;;5093379;28;20503;-74
2022/04/30 02:40:33;;;;;;;42.17;38.80;;;12.70;81.30;;;;;;5093129;28;20457;-74
2022/04/30 02:43:06;;;;;;;41.77;38.00;;;12.80;81.00;;;;;;5093463;28;20484;-74
2022/04/30 02:45:33;;;;;;;42.93;39.27;;;12.80;80.80;;;;;;5093265;28;20461;-74
2022/04/30 02:48:02;;;;;;;41.13;37.63;;;12.80;80.60;;;;;;5093448;28;20934;-74
2022/04/30 02:50:30;;;;;;;42.20;38.80;;;12.70;81.10;;;;;;5092026;28;20536;-74
2022/04/30 02:52:58;;;;;;;40.00;36.90;;;12.70;81.10;;;;;;5093449;28;20547;-74
2022/04/30 02:55:25;;;;;;;40.23;36.87;;;12.80;80.50;;;;;;5093197;28;20541;-74
2022/04/30 03:00:41;;;;;;;41.70;38.40;;;12.70;81.00;;;;;;5092935;28;20441;-74
2022/04/30 03:03:10;;;;;;;42.83;39.43;;;12.70;81.20;;;;;;5093250;28;20508;-74
2022/04/30 03:05:39;;;;;;;43.50;39.60;;;12.60;81.40;;;;;;5093021;28;20454;-74
2022/04/30 03:08:11;;;;;;;41.23;37.73;;;12.70;81.30;;;;;;5093228;28;20450;-74
2022/04/30 03:10:38;;;;;;;41.30;37.47;;;12.70;81.10;;;;;;5092411;28;20460;-74
2022/04/30 03:13:05;;;;;;;42.67;39.27;;;12.70;81.40;;;;;;5092883;28;20553;-74
2022/04/30 03:15:33;;;;;;;42.70;39.10;;;12.60;81.60;;;;;;5092900;28;20447;-74
2022/04/30 03:23:47;;;;;;;42.77;39.47;;;12.50;82.80;;;;;;5010923;28;20464;-74
2022/04/30 03:26:15;;;;;;;44.33;40.43;;;12.50;82.80;;;;;;5057417;28;20470;-74
2022/04/30 03:28:43;;;;;;;45.80;41.80;;;12.30;83.70;;;;;;5092761;28;20441;-74
2022/04/30 03:31:11;;;;;;;44.00;40.10;;;12.30;84.40;;;;;;5091793;28;20536;-74
2022/04/30 03:33:39;;;;;;;44.53;40.70;;;12.30;84.20;;;;;;5092442;28;20573;-74
2022/04/30 03:36:10;;;;;;;47.33;43.17;;;12.30;84.30;;;;;;5092406;28;20460;-74
2022/04/30 03:38:36;;;;;;;45.83;42.00;;;12.20;84.90;;;;;;5092326;28;20484;-74
2022/04/30 03:41:05;;;;;;;46.50;42.07;;;12.20;85.10;;;;;;5091971;28;20453;-74
2022/04/30 03:43:32;;;;;;;46.37;42.43;;;12.20;85.40;;;;;;5092467;28;20477;-74
2022/04/30 03:45:59;;;;;;;47.90;43.20;;;12.20;85.30;;;;;;5092168;28;20477;-74
2022/04/30 03:48:26;;;;;;;48.40;43.83;;;12.10;85.70;;;;;;5092250;28;20575;-74
2022/04/30 03:50:53;;;;;;;50.00;45.20;;;12.10;85.90;;;;;;5091967;28;20549;-74
2022/04/30 03:53:21;;;;;;;47.83;43.73;;;12.10;86.00;;;;;;5092296;28;20474;-74
2022/04/30 03:55:48;;;;;;;48.03;43.47;;;12.10;86.00;;;;;;5092280;28;20473;-74
2022/04/30 03:58:15;;;;;;;48.70;43.70;;;12.10;86.10;;;;;;5092054;28;20454;-74
2022/04/30 04:00:43;;;;;;;50.73;45.50;;;12.00;86.80;;;;;;5091466;28;20537;-74
2022/04/30 04:03:11;;;;;;;48.63;44.17;;;12.00;86.70;;;;;;5092442;28;20507;-74
2022/04/30 04:05:39;;;;;;;49.17;44.70;;;12.00;86.50;;;;;;5092223;28;20526;-74
2022/04/30 04:08:10;;;;;;;48.57;44.20;;;12.00;86.30;;;;;;5092223;28;20493;-74
2022/04/30 04:10:39;;;;;;;51.23;46.53;;;12.00;86.30;;;;;;5091631;28;20468;-74
2022/04/30 04:18:31;;;;;;;52.60;47.67;;;12.10;86.10;;;;;;5091813;28;20521;-74
2022/04/30 04:20:58;;;;;;;51.63;46.73;;;12.10;85.80;;;;;;5091687;28;20942;-74
2022/04/30 04:23:25;;;;;;;50.90;46.00;;;12.10;86.20;;;;;;5091817;28;20484;-74
2022/04/30 04:26:01;;;;;;;49.07;44.43;;;12.00;86.70;;;;;;5091789;28;20494;-74
2022/04/30 04:28:28;;;;;;;50.80;46.37;;;11.90;87.40;;;;;;5092051;28;20851;-74
2022/04/30 04:30:57;;;;;;;50.90;45.80;;;11.60;88.30;;;;;;5091616;28;20461;-74
2022/04/30 04:33:23;;;;;;;51.87;47.07;;;11.50;88.70;;;;;;5091970;28;20595;-74
2022/04/30 04:35:50;;;;;;;51.57;46.87;;;11.50;89.00;;;;;;5091859;28;20458;-74
2022/04/30 04:38:17;;;;;;;50.97;46.10;;;11.60;88.90;;;;;;5091720;28;20457;-74
2022/04/30 04:40:44;;;;;;;50.07;45.67;;;11.60;89.00;;;;;;5091274;28;20453;-74
2022/04/30 04:43:12;;;;;;;54.67;49.50;;;11.70;88.90;;;;;;5091693;28;20470;-74
2022/04/30 04:45:39;;;;;;;51.77;46.97;;;11.60;89.10;;;;;;5091902;28;20462;-74
2022/04/30 04:48:08;;;;;;;51.37;46.70;;;11.70;88.90;;;;;;5091930;28;20476;-74
2022/04/30 04:50:35;;;;;;;48.90;44.60;;;11.60;88.90;;;;;;5091118;28;20451;-74
2022/04/30 04:53:02;;;;;;;51.57;46.93;;;11.50;89.70;;;;;;5091941;28;20963;-74
2022/04/30 04:55:30;;;;;;;50.47;45.87;;;11.50;89.60;;;;;;5091953;28;20537;-74
2022/04/30 04:57:57;;;;;;;51.83;46.87;;;11.50;89.50;;;;;;5091815;28;20522;-74
2022/04/30 05:00:26;;;;;;;50.40;45.60;;;11.50;90.00;;;;;;5091009;28;20572;-74
2022/04/30 05:02:54;;;;;;;52.23;47.30;;;11.50;90.20;;;;;;5091444;28;20453;-74
2022/04/30 05:05:21;;;;;;;50.27;45.70;;;11.50;90.10;;;;;;5091459;28;20450;-74
2022/04/30 05:07:48;;;;;;;52.40;47.17;;;11.50;90.60;;;;;;5091664;28;20456;-74
2022/04/30 05:10:15;;;;;;;52.23;47.27;;;11.50;90.20;;;;;;5091057;28;20446;-74
2022/04/30 05:12:45;;;;;;;51.70;46.87;;;11.70;90.10;;;;;;5092339;28;20453;-74
2022/04/30 05:15:12;;;;;;;49.10;44.70;;;11.80;89.70;;;;;;5095067;28;20813;-74
2022/04/30 05:17:41;;;;;;;50.30;45.80;;;11.90;89.40;;;;;;5095182;28;20456;-74
2022/04/30 05:20:08;;;;;;;48.00;43.23;;;11.90;89.00;;;;;;5094380;28;20503;-74
2022/04/30 05:22:35;;;;;;;48.57;44.27;;;11.90;89.40;;;;;;5095175;28;20451;-74
2022/04/30 05:25:02;;;;;;;49.23;44.93;;;11.90;89.40;;;;;;5094860;28;20473;-74
2022/04/30 05:27:29;;;;;;;49.60;45.00;;;12.00;89.30;;;;;;5094549;28;20470;-74
2022/04/30 05:29:56;;;;;;;47.73;43.60;;;12.10;89.40;;;;;;5094324;28;20532;-74
2022/04/30 05:32:23;;;;;;;47.47;43.47;;;12.20;89.10;;;;;;5094642;28;20480;-74
2022/04/30 05:34:51;;;;;;;49.67;45.10;;;12.20;88.90;;;;;;5094689;28;20540;-74
2022/04/30 05:37:18;;;;;;;48.00;43.80;;;12.10;89.20;;;;;;5094973;28;20834;-74
2022/04/30 05:39:45;;;;;;;46.30;42.30;;;12.20;89.30;;;;;;5094008;28;21002;-74
2022/04/30 05:42:12;;;;;;;47.37;43.40;;;12.30;87.60;;;;;;5095275;28;20796;-74
2022/04/30 05:44:38;;;;;;;47.97;43.97;;;12.30;87.40;;;;;;5094568;28;20495;-74
2022/04/30 05:47:05;;;;;;;49.37;45.17;;;12.40;87.20;;;;;;5094461;28;20795;-74
2022/04/30 05:49:32;;;;;;;45.80;41.60;;;12.40;87.30;;;;;;5094056;28;20448;-74
2022/04/30 05:52:02;;;;;;;46.53;42.53;;;12.40;87.30;;;;;;5094675;28;20449;-74
2022/04/30 05:54:29;;;;;;;48.63;44.30;;;12.40;86.90;;;;;;5094453;28;20475;-74
2022/04/30 05:56:56;;;;;;;47.77;43.77;;;12.30;87.10;;;;;;5094463;28;20453;-74
2022/04/30 05:59:23;;;;;;;47.57;43.37;;;12.30;87.50;;;;;;5093594;28;20564;-74
2022/04/30 06:01:50;;;;;;;47.37;43.47;;;12.30;87.20;;;;;;5094331;28;20446;-74
2022/04/30 06:04:16;;;;;;;46.87;42.53;;;12.20;87.80;;;;;;5094590;28;20560;-74
2022/04/30 06:06:44;;;;;;;46.87;42.50;;;12.20;88.20;;;;;;5094321;28;20938;-74
2022/04/30 06:09:12;;;;;;;47.77;43.50;;;12.20;88.50;;;;;;5093598;28;20502;-74
2022/04/30 06:11:40;;;;;;;46.57;42.53;;;12.20;88.20;;;;;;5094142;28;21018;-74
2022/04/30 06:14:06;;;;;;;46.80;42.13;;;12.20;87.70;;;;;;5094004;28;20477;-74
2022/04/30 06:16:33;;;;;;;44.40;40.40;;;12.10;88.00;;;;;;5094028;28;20537;-74
2022/04/30 06:19:00;;;;;;;45.53;41.60;;;12.10;88.40;;;;;;5093845;28;20488;-75
2022/04/30 06:21:27;;;;;;;44.43;40.40;;;12.30;88.10;;;;;;5093622;28;20454;-74
2022/04/30 06:23:54;;;;;;;45.73;41.70;;;12.40;87.40;;;;;;5093144;28;20480;-74
2022/04/30 06:26:22;;;;;;;44.13;40.27;;;12.50;87.50;;;;;;5093068;28;20537;-74
2022/04/30 06:28:49;;;;;;;44.83;40.87;;;12.50;87.20;;;;;;5093772;28;20452;-74
2022/04/30 06:31:16;;;;;;;45.60;41.80;;;12.50;87.30;;;;;;5092950;28;20536;-74
2022/04/30 06:33:43;;;;;;;45.67;41.90;;;12.60;87.40;;;;;;5093915;28;20485;-74
2022/04/30 06:36:10;;;;;;;44.93;40.93;;;12.70;86.70;;;;;;5093755;28;20449;-74
2022/04/30 06:38:37;;;;;;;44.87;40.90;;;12.80;86.40;;;;;;5093401;28;20493;-74
2022/04/30 06:41:03;;;;;;;46.30;41.97;;;12.90;86.60;;;;;;5093026;28;20484;-74
2022/04/30 06:43:32;;;;;;;43.30;39.63;;;13.00;86.90;;;;;;5093426;28;20978;-74
2022/04/30 06:45:59;;;;;;;43.37;40.17;;;13.20;86.20;;;;;;5093527;28;20544;-74
2022/04/30 06:48:26;;;;;;;44.20;40.80;;;13.50;85.40;;;;;;5093426;28;20961;-74
2022/04/30 06:50:52;;;;;;;42.17;38.93;;;13.60;85.00;;;;;;5092861;28;20969;-74
2022/04/30 06:58:54;;;;;;;44.90;41.27;;;13.50;82.70;;;;;;5093398;28;20495;-74
2022/04/30 07:01:38;;;;;;;44.10;40.50;;;13.10;84.00;;;;;;5092858;28;20485;-74
2022/04/30 07:04:06;;;;;;;44.57;41.00;;;13.10;84.90;;;;;;5093060;28;20985;-74
2022/04/30 07:06:33;;;;;;;43.03;39.40;;;12.90;85.30;;;;;;5093081;28;20450;-74
2022/04/30 07:09:02;;;;;;;43.47;39.87;;;12.80;86.00;;;;;;5092999;28;20861;-74
2022/04/30 07:11:29;;;;;;;42.90;39.20;;;12.90;85.90;;;;;;5092615;28;20532;-74
2022/04/30 07:13:57;;;;;;;43.97;40.27;;;13.10;85.20;;;;;;5092979;28;21000;-74
2022/04/30 07:16:24;;;;;;;45.07;41.27;;;13.10;84.20;;;;;;5092733;28;20986;-74
2022/04/30 07:18:51;;;;;;;43.23;39.70;;;13.10;85.00;;;;;;5092681;28;20457;-74
2022/04/30 07:21:18;;;;;;;42.97;39.57;;;13.20;84.20;;;;;;5092289;28;20481;-74
2022/04/30 07:23:45;;;;;;;42.63;38.90;;;13.30;83.70;;;;;;5092756;28;20565;-74
2022/04/30 07:26:12;;;;;;;41.50;38.07;;;13.20;84.10;;;;;;5092308;28;20456;-74
2022/04/30 07:28:39;;;;;;;44.63;41.13;;;13.00;84.70;;;;;;5092769;28;21000;-74
2022/04/30 07:31:08;;;;;;;43.20;39.70;;;13.10;83.80;;;;;;5091906;28;20972;-74
2022/04/30 07:33:35;;;;;;;43.07;39.57;;;12.90;84.50;;;;;;5092434;28;20485;-74
2022/04/30 07:36:03;;;;;;;42.53;39.03;;;12.90;85.10;;;;;;5092291;28;20822;-74
2022/04/30 07:38:30;;;;;;;43.43;40.03;;;12.90;85.30;;;;;;5092480;28;20947;-74
2022/04/30 07:40:57;;;;;;;44.60;41.00;;;12.90;84.40;;;;;;5092076;28;20477;-74
2022/04/30 07:43:24;;;;;;;43.73;40.23;;;12.90;85.10;;;;;;5092591;28;20564;-74
2022/04/30 07:45:51;;;;;;;42.97;39.37;;;12.80;85.40;;;;;;5092395;28;20456;-74
2022/04/30 07:48:19;;;;;;;42.50;39.20;;;12.90;85.80;;;;;;5092523;28;20915;-74
2022/04/30 07:50:46;;;;;;;41.20;37.53;;;12.90;85.90;;;;;;5092074;28;20537;-74
2022/04/30 07:53:15;;;;;;;43.10;39.70;;;12.80;85.20;;;;;;5092496;28;20513;-74
2022/04/30 07:55:43;;;;;;;42.00;38.70;;;12.90;85.90;;;;;;5092484;28;20476;-74
2022/04/30 07:58:10;;;;;;;41.40;38.20;;;12.90;85.20;;;;;;5092651;28;20552;-74
2022/04/30 08:00:37;;;;;;;40.80;37.40;;;12.80;85.20;;;;;;5091758;28;20477;-74
2022/04/30 08:03:04;;;;;;;41.43;38.10;;;12.50;85.70;;;;;;5092235;28;20460;-74
2022/04/30 08:05:34;;;;;;;42.10;39.00;;;12.50;86.70;;;;;;5092254;28;20800;-74
2022/04/30 08:08:01;;;;;;;39.23;36.30;;;12.60;86.60;;;;;;5092218;28;20454;-74
2022/04/30 08:10:29;;;;;;;39.20;36.20;;;12.80;85.50;;;;;;5091381;28;20449;-74
2022/04/30 08:12:56;;;;;;;39.57;36.60;;;13.00;84.80;;;;;;5092080;28;20503;-74
2022/04/30 08:15:24;;;;;;;41.87;38.20;;;13.00;84.60;;;;;;5092106;28;20457;-74
2022/04/30 08:17:51;;;;;;;40.60;37.37;;;12.90;85.30;;;;;;5092045;28;20457;-74
2022/04/30 08:20:18;;;;;;;39.30;36.40;;;12.90;85.60;;;;;;5091322;28;20837;-74
2022/04/30 08:22:46;;;;;;;39.60;36.37;;;12.90;85.10;;;;;;5092171;28;20452;-74
2022/04/30 08:25:13;;;;;;;38.47;35.57;;;12.80;85.00;;;;;;5091855;28;20469;-74
2022/04/30 08:27:40;;;;;;;38.03;35.33;;;12.70;85.50;;;;;;5091559;28;20553;-74
2022/04/30 08:30:09;;;;;;;37.80;35.00;;;12.80;85.90;;;;;;5091213;28;20989;-75
2022/04/30 08:32:36;;;;;;;38.60;35.60;;;12.80;85.50;;;;;;5091863;28;20784;-74
2022/04/30 08:35:04;;;;;;;38.67;35.60;;;12.80;86.00;;;;;;5092118;28;20531;-74
2022/04/30 08:37:31;;;;;;;37.80;35.00;;;12.90;85.90;;;;;;5091747;28;20456;-74
2022/04/30 08:39:59;;;;;;;38.33;35.53;;;12.90;85.00;;;;;;5091147;28;20481;-74
2022/04/30 08:42:26;;;;;;;37.23;34.53;;;12.50;85.90;;;;;;5091768;28;20453;-74
2022/04/30 08:44:53;;;;;;;36.83;34.03;;;12.50;86.50;;;;;;5091748;28;20568;-74
2022/04/30 08:47:20;;;;;;;39.20;36.30;;;12.50;87.00;;;;;;5092090;28;20519;-74
2022/04/30 08:49:48;;;;;;;40.20;37.27;;;12.50;86.90;;;;;;5095222;28;20537;-74
2022/04/30 08:52:15;;;;;;;41.97;38.40;;;12.50;87.00;;;;;;5095698;28;20453;-74
2022/04/30 08:54:42;;;;;;;38.67;35.67;;;12.50;87.20;;;;;;5095460;28;20970;-74
2022/04/30 08:57:10;;;;;;;37.60;35.03;;;12.60;86.80;;;;;;5095781;28;20464;-74
2022/04/30 08:59:37;;;;;;;36.57;33.97;;;12.40;86.60;;;;;;5094932;28;20456;-74
2022/04/30 09:02:10;;;;;;;36.10;33.30;;;12.40;86.90;;;;;;5095464;28;20838;-74
2022/04/30 09:04:45;;;;;;;38.57;35.63;;;12.40;87.30;;;;;;5095444;28;20473;-74
2022/04/30 09:07:17;;;;;;;36.03;33.10;;;12.50;86.70;;;;;;5095317;28;20445;-74
2022/04/30 09:09:44;;;;;;;35.70;33.17;;;12.50;87.00;;;;;;5094836;28;20837;-74
2022/04/30 09:12:14;;;;;;;35.00;32.50;;;12.50;86.60;;;;;;5095256;28;20785;-74
2022/04/30 09:14:42;;;;;;;37.90;35.10;;;12.50;86.60;;;;;;5095247;28;20473;-74
2022/04/30 09:17:11;;;;;;;34.77;32.30;;;12.60;86.90;;;;;;5095070;28;20452;-74
2022/04/30 09:19:52;;;;;;;36.00;33.60;;;12.70;86.80;;;;;;5094749;28;20561;-74
2022/04/30 09:22:31;;;;;;;36.50;33.60;;;12.70;86.10;;;;;;5095160;28;20460;-74
2022/04/30 09:24:59;;;;;;;34.73;32.20;;;12.80;86.40;;;;;;5094991;28;20552;-74
2022/04/30 09:27:27;;;;;;;34.20;31.60;;;12.90;85.60;;;;;;5094697;28;20466;-75
2022/04/30 09:29:55;;;;;;;34.80;32.37;;;12.80;84.70;;;;;;5094341;28;20544;-75
2022/04/30 09:32:25;;;;;;;36.17;33.47;;;12.80;84.60;;;;;;5094767;28;20536;-75
2022/04/30 09:37:43;;;;;;;34.80;32.40;;;12.70;85.20;;;;;;5094851;28;20552;-75
2022/04/30 09:40:31;;;;;;;34.53;31.87;;;12.60;85.50;;;;;;5094062;28;20473;-74
2022/04/30 09:43:01;;;;;;;34.77;32.33;;;12.70;85.70;;;;;;5089790;28;20460;-74
2022/04/30 09:45:32;;;;;;;32.70;30.50;;;12.80;84.90;;;;;;5094718;28;20484;-74
2022/04/30 09:48:01;;;;;;;36.33;33.60;;;12.90;85.30;;;;;;5094884;28;20445;-74
2022/04/30 09:56:06;;;;;;;31.67;29.47;;;13.40;82.10;;;;;;5094734;28;20429;-74
2022/04/30 09:58:39;;;;;;;31.53;29.53;;;13.50;82.10;;;;;;5094232;28;20457;-74
2022/04/30 10:01:07;;;;;;;33.23;31.13;;;13.40;81.40;;;;;;5093842;28;20481;-75
2022/04/30 10:03:35;;;;;;;34.77;32.57;;;13.60;81.60;;;;;;5094334;28;20480;-74
2022/04/30 10:06:04;;;;;;;32.30;29.97;;;13.80;80.90;;;;;;5094496;28;20446;-74
2022/04/30 10:08:33;;;;;;;32.53;30.33;;;14.00;79.60;;;;;;5094139;28;20442;-74
2022/04/30 10:11:19;;;;;;;31.37;29.37;;;14.30;78.70;;;;;;5093743;28;20454;-75
2022/04/30 10:13:57;;;;;;;31.43;29.53;;;14.30;78.20;;;;;;5093718;28;20504;-74
2022/04/30 10:16:28;;;;;;;32.30;30.30;;;14.20;79.40;;;;;;5094042;28;20457;-75
2022/04/30 10:19:10;;;;;;;32.17;29.97;;;14.40;78.60;;;;;;5093946;28;20465;-74
2022/04/30 10:21:37;;;;;;;32.83;30.53;;;14.20;79.10;;;;;;5093813;28;20574;-75
2022/04/30 10:24:06;;;;;;;32.03;29.83;;;14.20;79.40;;;;;;5093732;28;20481;-75
2022/04/30 10:26:33;;;;;;;31.73;29.70;;;14.30;79.20;;;;;;5093616;28;20532;-75
2022/04/30 10:29:03;;;;;;;32.83;30.77;;;14.40;79.30;;;;;;5093814;28;20481;-74
2022/04/30 10:31:30;;;;;;;32.97;30.87;;;14.60;78.00;;;;;;5093367;28;20484;-74
2022/04/30 10:33:57;;;;;;;35.77;33.33;;;14.60;78.20;;;;;;5093728;28;21055;-75
2022/04/30 10:36:33;;;;;;;33.20;31.10;;;14.70;78.70;;;;;;5093745;28;20456;-74
2022/04/30 10:39:02;;;;;;;34.13;32.03;;;14.70;78.50;;;;;;5093471;28;20962;-74
2022/04/30 10:41:29;;;;;;;31.97;29.87;;;14.80;78.90;;;;;;5093312;28;20484;-74
2022/04/30 10:44:04;;;;;;;31.70;29.70;;;14.90;78.30;;;;;;5093577;28;20564;-75
2022/04/30 10:46:38;;;;;;;32.20;30.27;;;15.20;77.40;;;;;;5093596;28;20453;-75
2022/04/30 10:49:06;;;;;;;32.30;30.30;;;15.50;77.30;;;;;;5093087;28;20536;-75
2022/04/30 10:51:38;;;;;;;31.60;29.53;;;15.60;75.10;;;;;;5093081;28;20956;-75
2022/04/30 10:54:10;;;;;;;31.17;29.20;;;15.70;74.90;;;;;;5093421;28;20523;-75
2022/04/30 10:56:39;;;;;;;31.13;29.13;;;15.80;73.20;;;;;;5093256;28;20460;-75
2022/04/30 10:59:08;;;;;;;30.73;28.73;;;15.60;74.80;;;;;;5093016;28;20462;-75
2022/04/30 11:01:35;;;;;;;31.63;29.63;;;15.30;75.70;;;;;;5093179;28;20485;-75
2022/04/30 11:04:02;;;;;;;32.57;30.50;;;15.00;77.10;;;;;;5093260;28;20469;-74
2022/04/30 11:06:31;;;;;;;30.00;28.10;;;15.00;76.80;;;;;;5093173;28;20800;-74
2022/04/30 11:09:02;;;;;;;31.10;29.10;;;14.70;77.30;;;;;;5092928;28;20456;-75
2022/04/30 11:11:30;;;;;;;29.87;28.07;;;14.30;78.80;;;;;;5092206;28;20465;-75
2022/04/30 11:14:00;;;;;;;28.40;26.70;;;13.90;79.60;;;;;;5092879;28;20564;-75
2022/04/30 11:16:33;;;;;;;28.23;26.63;;;13.50;80.30;;;;;;5092856;28;20823;-74
2022/04/30 11:19:03;;;;;;;28.23;26.53;;;13.50;80.30;;;;;;5092790;28;20449;-74
2022/04/30 11:21:34;;;;;;;27.90;26.20;;;13.60;80.20;;;;;;5092474;28;20482;-74
2022/04/30 11:24:01;;;;;;;26.30;24.90;;;13.80;79.40;;;;;;5092741;28;20470;-74
2022/04/30 11:26:29;;;;;;;28.70;26.70;;;14.00;79.00;;;;;;5092484;28;20480;-75
2022/04/30 11:28:56;;;;;;;25.83;24.43;;;14.30;78.60;;;;;;5092720;28;20493;-75
2022/04/30 11:31:24;;;;;;;26.27;24.87;;;14.30;76.70;;;;;;5091892;28;20458;-75
2022/04/30 11:33:52;;;;;;;26.50;25.00;;;14.10;77.30;;;;;;5093089;28;20476;-75
2022/04/30 11:36:19;;;;;;;25.77;24.47;;;14.10;78.00;;;;;;5092753;28;20938;-74
2022/04/30 11:38:53;;;;;;;27.37;25.87;;;14.20;77.50;;;;;;5092245;28;20466;-74
2022/04/30 11:41:20;;;;;;;28.60;27.00;;;14.20;78.10;;;;;;5091955;28;20513;-75
2022/04/30 11:43:58;;;;;;;29.60;28.00;;;14.30;78.10;;;;;;5092418;28;20477;-74
2022/04/30 11:46:25;;;;;;;27.23;25.83;;;14.30;77.90;;;;;;5092520;28;20938;-74
2022/04/30 11:48:53;;;;;;;28.13;26.53;;;14.40;76.80;;;;;;5092358;28;20453;-74
2022/04/30 11:51:21;;;;;;;27.43;25.90;;;14.50;77.10;;;;;;5091752;28;20449;-74
2022/04/30 11:53:48;;;;;;;29.20;27.50;;;14.70;76.50;;;;;;5092154;28;20477;-74
2022/04/30 11:56:15;;;;;;;28.73;27.13;;;14.80;75.80;;;;;;5092226;28;20536;-74
2022/04/30 11:58:44;;;;;;;27.83;26.33;;;15.00;75.80;;;;;;5092185;28;20880;-75
2022/04/30 12:01:25;;;;;;;28.13;26.53;;;15.20;75.30;;;;;;5091556;28;20513;-75
2022/04/30 12:04:01;;;;;;;30.37;28.73;;;15.30;74.30;;;;;;5092118;28;20561;-75
2022/04/30 12:06:29;;;;;;;28.57;26.87;;;15.00;75.30;;;;;;5092136;28;20457;-75
2022/04/30 12:08:56;;;;;;;27.63;26.03;;;15.10;75.40;;;;;;5092168;28;20449;-74
2022/04/30 12:11:24;;;;;;;28.87;27.07;;;15.40;73.90;;;;;;5091883;28;20453;-75
2022/04/30 12:14:01;;;;;;;29.40;27.70;;;15.40;72.80;;;;;;5092120;28;20480;-74
2022/04/30 12:16:37;;;;;;;27.57;26.03;;;15.20;73.40;;;;;;5092133;28;20461;-75
2022/04/30 12:24:49;;;;;;;28.07;26.37;;;14.60;76.20;;;;;;5096285;28;20449;-75
2022/04/30 12:27:23;;;;;;;29.37;27.47;;;14.50;76.30;;;;;;5095624;28;20461;-75
2022/04/30 12:30:01;;;;;;;29.77;28.00;;;14.70;76.00;;;;;;5095739;28;20453;-75
2022/04/30 12:32:28;;;;;;;30.20;28.50;;;14.80;75.50;;;;;;5096049;28;20852;-75
2022/04/30 12:34:57;;;;;;;29.00;27.30;;;14.90;73.80;;;;;;5095843;28;20552;-75
2022/04/30 12:37:32;;;;;;;29.47;27.77;;;14.70;74.60;;;;;;5095885;28;20461;-74
2022/04/30 12:39:59;;;;;;;28.53;26.93;;;14.20;75.30;;;;;;5095445;28;20440;-75
2022/04/30 12:42:26;;;;;;;31.30;29.50;;;14.10;76.10;;;;;;5095973;28;20558;-74
2022/04/30 12:44:53;;;;;;;30.03;28.23;;;13.90;76.40;;;;;;5095807;28;20826;-74
2022/04/30 12:47:20;;;;;;;27.47;25.97;;;13.60;77.00;;;;;;5095843;28;20524;-74
2022/04/30 12:49:47;;;;;;;32.50;30.80;;;13.80;76.20;;;;;;5094942;28;20457;-75
2022/04/30 12:52:15;;;;;;;28.30;26.70;;;13.90;75.50;;;;;;5095698;28;20449;-75
2022/04/30 12:54:43;;;;;;;28.93;27.33;;;14.10;74.20;;;;;;5095619;28;20480;-75
2022/04/30 12:57:11;;;;;;;28.20;26.60;;;14.00;73.80;;;;;;5095724;28;20449;-76
2022/04/30 12:59:38;;;;;;;30.70;29.10;;;13.80;75.20;;;;;;5095022;28;20491;-76
2022/04/30 13:02:07;;;;;;;28.23;26.57;;;14.00;74.60;;;;;;5095570;28;20500;-76
2022/04/30 13:04:35;;;;;;;27.90;26.30;;;13.80;73.40;;;;;;5095336;28;20469;-75
2022/04/30 13:07:02;;;;;;;27.17;25.57;;;13.60;74.90;;;;;;5095626;28;20458;-75
2022/04/30 13:14:58;;;;;;;28.20;26.60;;;14.20;74.00;;;;;;5095338;28;20475;-75
2022/04/30 13:17:25;;;;;;;29.30;27.50;;;14.20;74.30;;;;;;5095183;28;20450;-75
2022/04/30 13:19:52;;;;;;;32.50;30.63;;;14.40;74.00;;;;;;5094623;28;20532;-75